sensor_id;sensor_type;location;lat;lon;timestamp;P1;durP1;ratioP1;P2;durP2;ratioP2
31010;SDS011;26395;53.412;19.598;2022-09-09T00:11:12;4.40;;;2.40;;
31010;SDS011;26395;53.412;19.598;2022-09-09T00:26:35;5.10;;;2.40;;
31010;SDS011;26395;53.412;19.598;2022-09-09T00:41:50;3.90;;;2.40;;
31010;SDS011;26395;53.412;19.598;2022-09-09T01:12:41;4.30;;;2.50;;
31010;SDS011;26395;53.412;19.598;2022-09-09T01:27:53;7.30;;;2.90;;
31010;SDS011;26395;53.412;19.598;2022-09-09T01:43:00;7.10;;;3.10;;
31010;SDS011;26395;53.412;19.598;2022-09-09T02:13:40;8.40;;;3.60;;
31010;SDS011;26395;53.412;19.598;2022-09-09T02:28:48;5.30;;;3.40;;
31010;SDS011;26395;53.412;19.598;2022-09-09T02:43:53;7.60;;;4.10;;
31010;SDS011;26395;53.412;19.598;2022-09-09T02:58:57;7.10;;;4.10;;
31010;SDS011;26395;53.412;19.598;2022-09-09T03:14:01;6.50;;;4.30;;
31010;SDS011;26395;53.412;19.598;2022-09-09T03:29:07;6.80;;;3.50;;
31010;SDS011;26395;53.412;19.598;2022-09-09T03:44:10;9.10;;;3.30;;
31010;SDS011;26395;53.412;19.598;2022-09-09T03:59:14;5.90;;;3.10;;
31010;SDS011;26395;53.412;19.598;2022-09-09T04:14:18;4.60;;;2.90;;
31010;SDS011;26395;53.412;19.598;2022-09-09T04:29:22;3.90;;;2.70;;
31010;SDS011;26395;53.412;19.598;2022-09-09T04:44:26;5.50;;;2.60;;
31010;SDS011;26395;53.412;19.598;2022-09-09T04:59:29;6.30;;;3.10;;
31010;SDS011;26395;53.412;19.598;2022-09-09T05:14:34;5.00;;;2.90;;
31010;SDS011;26395;53.412;19.598;2022-09-09T05:29:40;4.80;;;2.90;;
31010;SDS011;26395;53.412;19.598;2022-09-09T05:44:46;4.40;;;2.90;;
31010;SDS011;26395;53.412;19.598;2022-09-09T05:59:50;3.80;;;3.10;;
31010;SDS011;26395;53.412;19.598;2022-09-09T06:14:54;5.20;;;3.80;;
31010;SDS011;26395;53.412;19.598;2022-09-09T06:29:57;20.90;;;11.50;;
31010;SDS011;26395;53.412;19.598;2022-09-09T06:45:00;6.20;;;4.00;;
31010;SDS011;26395;53.412;19.598;2022-09-09T07:00:11;20.00;;;12.60;;
31010;SDS011;26395;53.412;19.598;2022-09-09T07:15:17;4.80;;;3.90;;
31010;SDS011;26395;53.412;19.598;2022-09-09T07:30:22;4.60;;;3.00;;
31010;SDS011;26395;53.412;19.598;2022-09-09T07:45:30;8.40;;;6.10;;
31010;SDS011;26395;53.412;19.598;2022-09-09T08:00:34;8.30;;;4.40;;
31010;SDS011;26395;53.412;19.598;2022-09-09T08:15:37;5.00;;;3.10;;
31010;SDS011;26395;53.412;19.598;2022-09-09T08:30:41;5.80;;;3.20;;
31010;SDS011;26395;53.412;19.598;2022-09-09T08:46:00;5.30;;;3.10;;
31010;SDS011;26395;53.412;19.598;2022-09-09T09:16:38;5.40;;;3.60;;
31010;SDS011;26395;53.412;19.598;2022-09-09T09:31:53;3.90;;;3.10;;
31010;SDS011;26395;53.412;19.598;2022-09-09T09:47:10;12.80;;;9.20;;
31010;SDS011;26395;53.412;19.598;2022-09-09T10:02:37;17.40;;;7.80;;
31010;SDS011;26395;53.412;19.598;2022-09-09T10:18:48;12.90;;;8.90;;
31010;SDS011;26395;53.412;19.598;2022-09-09T10:33:45;34.40;;;12.70;;
31010;SDS011;26395;53.412;19.598;2022-09-09T11:04:13;33.60;;;12.50;;
31010;SDS011;26395;53.412;19.598;2022-09-09T11:19:56;9.60;;;5.60;;
31010;SDS011;26395;53.412;19.598;2022-09-09T11:34:54;10.60;;;7.60;;
31010;SDS011;26395;53.412;19.598;2022-09-09T12:05:18;13.30;;;8.10;;
31010;SDS011;26395;53.412;19.598;2022-09-09T12:35:34;41.20;;;19.80;;
31010;SDS011;26395;53.412;19.598;2022-09-09T12:50:45;33.70;;;16.50;;
31010;SDS011;26395;53.412;19.598;2022-09-09T13:05:53;21.50;;;13.30;;
31010;SDS011;26395;53.412;19.598;2022-09-09T13:21:04;22.50;;;13.70;;
31010;SDS011;26395;53.412;19.598;2022-09-09T13:36:10;34.70;;;19.20;;
31010;SDS011;26395;53.412;19.598;2022-09-09T14:06:29;25.20;;;14.50;;
31010;SDS011;26395;53.412;19.598;2022-09-09T14:21:33;30.90;;;19.40;;
31010;SDS011;26395;53.412;19.598;2022-09-09T14:36:37;28.10;;;17.30;;
31010;SDS011;26395;53.412;19.598;2022-09-09T14:51:41;28.60;;;16.50;;
31010;SDS011;26395;53.412;19.598;2022-09-09T15:06:45;29.30;;;16.70;;
31010;SDS011;26395;53.412;19.598;2022-09-09T15:21:51;36.90;;;21.00;;
31010;SDS011;26395;53.412;19.598;2022-09-09T15:36:55;29.60;;;18.70;;
31010;SDS011;26395;53.412;19.598;2022-09-09T15:54:54;31.70;;;18.80;;
31010;SDS011;26395;53.412;19.598;2022-09-09T16:09:58;54.10;;;29.40;;
31010;SDS011;26395;53.412;19.598;2022-09-09T16:25:02;44.70;;;25.50;;
31010;SDS011;26395;53.412;19.598;2022-09-09T16:40:06;49.50;;;29.10;;
31010;SDS011;26395;53.412;19.598;2022-09-09T16:55:11;47.80;;;23.10;;
31010;SDS011;26395;53.412;19.598;2022-09-09T17:10:15;27.00;;;16.50;;
31010;SDS011;26395;53.412;19.598;2022-09-09T17:25:19;31.00;;;17.30;;
31010;SDS011;26395;53.412;19.598;2022-09-09T17:40:27;31.20;;;18.30;;
31010;SDS011;26395;53.412;19.598;2022-09-09T17:55:32;34.20;;;19.70;;
31010;SDS011;26395;53.412;19.598;2022-09-09T18:10:37;37.20;;;17.80;;
31010;SDS011;26395;53.412;19.598;2022-09-09T18:25:42;24.10;;;16.20;;
31010;SDS011;26395;53.412;19.598;2022-09-09T18:40:47;34.90;;;16.70;;
31010;SDS011;26395;53.412;19.598;2022-09-09T18:55:57;29.90;;;14.40;;
31010;SDS011;26395;53.412;19.598;2022-09-09T19:11:03;23.80;;;11.20;;
31010;SDS011;26395;53.412;19.598;2022-09-09T19:26:12;40.30;;;17.50;;
31010;SDS011;26395;53.412;19.598;2022-09-09T19:56:27;11.30;;;7.90;;
31010;SDS011;26395;53.412;19.598;2022-09-09T20:11:33;9.90;;;6.70;;
31010;SDS011;26395;53.412;19.598;2022-09-09T20:26:38;11.60;;;7.40;;
31010;SDS011;26395;53.412;19.598;2022-09-09T20:41:43;10.30;;;7.20;;
31010;SDS011;26395;53.412;19.598;2022-09-09T20:56:48;10.70;;;6.40;;
31010;SDS011;26395;53.412;19.598;2022-09-09T21:11:53;10.80;;;6.80;;
31010;SDS011;26395;53.412;19.598;2022-09-09T21:26:57;9.80;;;7.00;;
31010;SDS011;26395;53.412;19.598;2022-09-09T21:42:02;12.10;;;7.70;;
31010;SDS011;26395;53.412;19.598;2022-09-09T21:57:07;10.10;;;5.90;;
31010;SDS011;26395;53.412;19.598;2022-09-09T22:12:10;8.10;;;5.20;;
31010;SDS011;26395;53.412;19.598;2022-09-09T22:27:13;8.20;;;5.70;;
31010;SDS011;26395;53.412;19.598;2022-09-09T22:42:17;8.40;;;6.20;;
31010;SDS011;26395;53.412;19.598;2022-09-09T22:57:21;9.10;;;6.30;;
31010;SDS011;26395;53.412;19.598;2022-09-09T23:12:24;9.50;;;6.30;;
31010;SDS011;26395;53.412;19.598;2022-09-09T23:27:27;7.90;;;6.00;;
31010;SDS011;26395;53.412;19.598;2022-09-09T23:42:31;7.80;;;5.90;;
31010;SDS011;26395;53.412;19.598;2022-09-09T23:57:35;8.30;;;6.20;;
